Weather at Ellistown Airstrip

Public forecast

Using degrees Celsius for public forecast. Weather courtesy of forecast.io.

Closest aviation weather report (METAR) to Ellistown Airstrip

Closest report is Dublin Airport, 6.5 nm (12.0 km) S.

2024/05/24 01:30 (retrieved 47 minutes ago)

EIDW 240130Z 28012KT 9999 FEW018 BKN024 BKN030 10/06 Q1016 NOSIG

Closest aviation forecast (TAF) to Ellistown Airstrip

Forecast is more than 6 hours old.

Closest forecast is RAF Fairford, 197.3 nm (365.4 km) ESE.

2024/05/23 15:09 Ammendment (retrieved 11 hours ago)

AMD EGVA 231500Z 2315/2417 28012G20KT 9999 BKN030 QNH2992INS BECMG 2320/2321 27009KT 9999 BKN025 QNH2999INS BECMG 2404/2405 24006KT 9999 FEW030 SCT150 QNH3002INS BECMG 2408/2409 24009KT 9999 BKN040 BKN150 QNH3003INS TX17/2413Z TN08/2405Z LAST NO AMDS AFT 2315 NEXT 2402